Time;durP1;ratioP1;P1;durP2;ratioP2;P2;SDS_P1;SDS_P2;PMS_P1;PMS_P2;Temp;Humidity;BMP_temperature;BMP_pressure;BME280_temperature;BME280_humidity;BME280_pressure;Samples;Min_cycle;Max_cycle;Signal;HPM_P1;HPM_P2
2023/07/20 00:02:10;;;;;;;;;;;22.20;68.90;;;;;;4183838;28;19931;-44
2023/07/20 00:04:52;;;;;;;;;;;22.20;69.90;;;;;;4189022;28;20021;-46
2023/07/20 00:07:33;;;;;;;;;;;22.20;69.10;;;;;;4181161;28;19932;-46
2023/07/20 00:10:14;;;;;;;;;;;22.20;69.10;;;;;;4155576;28;20406;-44
2023/07/20 00:12:55;;;;;;;;;;;22.20;69.10;;;;;;4154554;28;19936;-45
2023/07/20 00:15:37;;;;;;;;;;;22.20;69.20;;;;;;4156082;28;19931;-48
2023/07/20 00:18:21;;;;;;;;;;;22.20;69.30;;;;;;4156819;28;19936;-45
2023/07/20 00:21:03;;;;;;;;;;;22.20;69.30;;;;;;4154700;28;20022;-44
2023/07/20 00:23:44;;;;;;;;;;;22.20;69.40;;;;;;4164044;28;19932;-48
2023/07/20 00:26:25;;;;;;;;;;;22.20;69.40;;;;;;4172148;28;20338;-46
2023/07/20 00:29:06;;;;;;;;;;;22.20;69.50;;;;;;4171496;28;19935;-46
2023/07/20 00:31:47;;;;;;;;;;;22.20;69.60;;;;;;4152654;28;20172;-47
2023/07/20 00:34:28;;;;;;;;;;;22.10;69.60;;;;;;4170857;28;19935;-43
2023/07/20 00:37:10;;;;;;;;;;;22.20;69.70;;;;;;4184205;28;19977;-43
2023/07/20 00:39:51;;;;;;;;;;;22.10;69.70;;;;;;4172098;28;19939;-44
2023/07/20 00:42:32;;;;;;;;;;;22.20;69.90;;;;;;4169260;28;20442;-44
2023/07/20 00:45:13;;;;;;;;;;;22.10;70.80;;;;;;4172086;28;19974;-45
2023/07/20 00:47:54;;;;;;;;;;;22.10;69.90;;;;;;4194220;28;19936;-44
2023/07/20 00:50:35;;;;;;;;;;;22.10;70.00;;;;;;4186978;28;19936;-45
2023/07/20 00:53:18;;;;;;;;;;;22.10;70.00;;;;;;4186521;28;19939;-45
2023/07/20 00:55:59;;;;;;;;;;;22.10;70.10;;;;;;4186717;28;20062;-44
2023/07/20 00:58:39;;;;;;;;;;;22.10;70.10;;;;;;4170906;28;19936;-45
2023/07/20 01:01:20;;;;;;;;;;;22.10;70.10;;;;;;4137472;28;19936;-44
2023/07/20 01:04:01;;;;;;;;;;;22.10;70.20;;;;;;4157958;28;20071;-46
2023/07/20 01:06:46;;;;;;;;;;;22.10;70.30;;;;;;4169265;28;19932;-45
2023/07/20 01:09:32;;;;;;;;;;;22.10;70.30;;;;;;4155137;28;20006;-47
2023/07/20 01:12:14;;;;;;;;;;;22.10;70.30;;;;;;4157461;28;20059;-45
2023/07/20 01:14:56;;;;;;;;;;;22.10;70.40;;;;;;4188053;28;20025;-44
2023/07/20 01:17:37;;;;;;;;;;;22.10;70.50;;;;;;4175473;28;19936;-44
2023/07/20 01:20:20;;;;;;;;;;;22.10;70.50;;;;;;4155142;28;19936;-44
2023/07/20 01:23:22;;;;;;;;;;;22.10;70.60;;;;;;4154297;28;20271;-45
2023/07/20 01:26:17;;;;;;;;;;;22.00;70.60;;;;;;4156183;28;20018;-45
2023/07/20 01:29:13;;;;;;;;;;;22.10;70.70;;;;;;4157826;28;19996;-45
2023/07/20 01:31:56;;;;;;;;;;;22.00;70.60;;;;;;4170303;28;19932;-45
2023/07/20 01:34:37;;;;;;;;;;;22.00;70.70;;;;;;4171358;28;20017;-45
2023/07/20 01:37:19;;;;;;;;;;;22.00;70.70;;;;;;4157787;28;19940;-46
2023/07/20 01:40:01;;;;;;;;;;;22.00;70.80;;;;;;4153013;28;20510;-45
2023/07/20 01:42:44;;;;;;;;;;;22.00;70.80;;;;;;4159355;28;19932;-45
2023/07/20 01:45:25;;;;;;;;;;;22.00;70.80;;;;;;4171519;28;20378;-46
2023/07/20 01:48:07;;;;;;;;;;;22.00;70.90;;;;;;4142357;28;20335;-49
2023/07/20 01:50:48;;;;;;;;;;;22.00;70.90;;;;;;4138400;28;19940;-45
2023/07/20 01:53:29;;;;;;;;;;;22.00;70.90;;;;;;4153114;28;19936;-48
2023/07/20 01:56:12;;;;;;;;;;;22.00;70.90;;;;;;4155240;28;19936;-46
2023/07/20 01:58:52;;;;;;;;;;;22.00;70.90;;;;;;4159910;28;19932;-43
2023/07/20 02:01:33;;;;;;;;;;;22.00;70.90;;;;;;4171429;28;19935;-46
2023/07/20 02:04:16;;;;;;;;;;;22.00;70.90;;;;;;4169714;28;19974;-46
2023/07/20 02:06:57;;;;;;;;;;;21.90;70.90;;;;;;4171759;28;19951;-44
2023/07/20 02:09:38;;;;;;;;;;;21.90;70.90;;;;;;4170468;28;20034;-44
2023/07/20 02:12:21;;;;;;;;;;;21.90;70.80;;;;;;4171361;28;19935;-44
2023/07/20 02:15:01;;;;;;;;;;;21.90;71.70;;;;;;4160455;28;20073;-45
2023/07/20 02:17:43;;;;;;;;;;;21.90;70.80;;;;;;4186643;28;19932;-46
2023/07/20 02:20:27;;;;;;;;;;;21.90;70.80;;;;;;4170197;28;19932;-44
2023/07/20 02:23:08;;;;;;;;;;;21.90;70.80;;;;;;4159212;28;20055;-44
2023/07/20 02:25:49;;;;;;;;;;;21.90;70.80;;;;;;4153396;28;19943;-47
2023/07/20 02:28:29;;;;;;;;;;;21.90;70.80;;;;;;4153191;28;19932;-46
2023/07/20 02:31:13;;;;;;;;;;;21.90;70.80;;;;;;4122042;28;19939;-47
2023/07/20 02:33:56;;;;;;;;;;;21.80;70.70;;;;;;4145711;28;19935;-47
2023/07/20 02:36:42;;;;;;;;;;;21.80;70.70;;;;;;4111107;28;19933;-49
2023/07/20 02:39:24;;;;;;;;;;;21.80;70.70;;;;;;4140693;28;19932;-46
2023/07/20 02:42:16;;;;;;;;;;;21.80;70.70;;;;;;4148338;28;20437;-46
2023/07/20 02:45:07;;;;;;;;;;;21.80;70.70;;;;;;4145278;28;19932;-47
2023/07/20 02:47:48;;;;;;;;;;;21.80;70.70;;;;;;4158242;28;20461;-47
2023/07/20 02:50:32;;;;;;;;;;;21.80;70.60;;;;;;4178660;28;20005;-47
2023/07/20 02:53:17;;;;;;;;;;;21.80;70.60;;;;;;4174692;28;19931;-47
2023/07/20 02:56:00;;;;;;;;;;;21.80;70.60;;;;;;4181941;28;19993;-47
2023/07/20 02:58:46;;;;;;;;;;;21.80;70.60;;;;;;4173485;28;19952;-47
2023/07/20 03:01:29;;;;;;;;;;;21.70;70.50;;;;;;4162921;28;20437;-48
2023/07/20 03:04:11;;;;;;;;;;;21.70;70.50;;;;;;4162970;28;20021;-51
2023/07/20 03:06:53;;;;;;;;;;;21.70;71.30;;;;;;4165787;28;20062;-53
2023/07/20 03:09:37;;;;;;;;;;;21.70;70.40;;;;;;4165743;28;20006;-50
2023/07/20 03:12:18;;;;;;;;;;;21.70;70.40;;;;;;4153646;28;19974;-50
2023/07/20 03:15:02;;;;;;;;;;;21.70;70.40;;;;;;4139417;28;20035;-52
2023/07/20 03:17:43;;;;;;;;;;;21.70;70.40;;;;;;4138393;28;19967;-49
2023/07/20 03:20:25;;;;;;;;;;;21.70;70.30;;;;;;4158648;28;19974;-52
2023/07/20 03:23:09;;;;;;;;;;;21.70;70.30;;;;;;4168185;28;20498;-50
2023/07/20 03:25:54;;;;;;;;;;;21.60;70.30;;;;;;4141995;28;19936;-52
2023/07/20 03:28:39;;;;;;;;;;;21.60;70.30;;;;;;4169549;28;20351;-50
2023/07/20 03:31:20;;;;;;;;;;;21.60;70.30;;;;;;4162392;28;20079;-49
2023/07/20 03:34:02;;;;;;;;;;;21.60;70.20;;;;;;4168400;28;19935;-49
2023/07/20 03:36:43;;;;;;;;;;;21.60;70.10;;;;;;4150875;28;20307;-50
2023/07/20 03:39:26;;;;;;;;;;;21.60;70.10;;;;;;4168271;28;19931;-49
2023/07/20 03:42:09;;;;;;;;;;;21.60;70.00;;;;;;4168104;28;19932;-50
2023/07/20 03:44:50;;;;;;;;;;;21.60;70.00;;;;;;4160786;28;19979;-52
2023/07/20 03:47:32;;;;;;;;;;;21.50;69.80;;;;;;4167145;28;19932;-49
2023/07/20 03:50:13;;;;;;;;;;;21.50;69.80;;;;;;4152634;28;19960;-53
2023/07/20 03:52:55;;;;;;;;;;;21.50;69.80;;;;;;4157131;28;19946;-49
2023/07/20 03:55:41;;;;;;;;;;;21.50;69.80;;;;;;4152097;28;19935;-50
2023/07/20 03:58:24;;;;;;;;;;;21.50;69.80;;;;;;4133892;28;19937;-51
2023/07/20 04:01:07;;;;;;;;;;;21.50;69.90;;;;;;4126711;28;19958;-51
2023/07/20 04:03:48;;;;;;;;;;;21.50;69.90;;;;;;4144540;28;19936;-50
2023/07/20 04:06:30;;;;;;;;;;;21.50;69.90;;;;;;4151069;28;19936;-49
2023/07/20 04:09:12;;;;;;;;;;;21.50;69.90;;;;;;4155435;28;19931;-50
2023/07/20 04:11:54;;;;;;;;;;;21.50;70.00;;;;;;4164956;28;19948;-49
2023/07/20 04:14:38;;;;;;;;;;;21.40;69.90;;;;;;4148824;28;19933;-49
2023/07/20 04:17:19;;;;;;;;;;;21.40;69.90;;;;;;4142185;28;19971;-49
2023/07/20 04:20:04;;;;;;;;;;;21.40;69.80;;;;;;4148866;28;20280;-52
2023/07/20 04:22:45;;;;;;;;;;;21.40;69.90;;;;;;4134667;28;20003;-51
2023/07/20 04:25:39;;;;;;;;;;;21.40;69.80;;;;;;4115246;28;19931;-48
2023/07/20 04:28:24;;;;;;;;;;;21.40;69.80;;;;;;4152473;28;19961;-51
2023/07/20 04:31:13;;;;;;;;;;;21.40;70.30;;;;;;4162133;28;20300;-48
2023/07/20 04:33:56;;;;;;;;;;;21.40;69.90;;;;;;4153056;28;20127;-49
2023/07/20 04:36:40;;;;;;;;;;;21.40;69.90;;;;;;4144414;28;24403;-51
2023/07/20 04:39:21;;;;;;;;;;;21.40;69.90;;;;;;4153294;28;19935;-49
2023/07/20 04:42:16;;;;;;;;;;;21.40;70.00;;;;;;4166252;28;19939;-46
2023/07/20 04:44:59;;;;;;;;;;;21.30;70.00;;;;;;4150645;28;20303;-47
2023/07/20 04:47:44;;;;;;;;;;;21.30;70.10;;;;;;4135994;28;19932;-49
2023/07/20 04:50:29;;;;;;;;;;;21.30;70.30;;;;;;4117623;28;20003;-47
2023/07/20 04:53:12;;;;;;;;;;;21.30;71.30;;;;;;4125818;28;20446;-47
2023/07/20 04:55:57;;;;;;;;;;;21.30;70.40;;;;;;4125623;28;20007;-49
2023/07/20 04:58:39;;;;;;;;;;;21.40;70.30;;;;;;4164883;28;19934;-48
2023/07/20 05:01:23;;;;;;;;;;;21.40;70.30;;;;;;4160477;28;20688;-48
2023/07/20 05:04:11;;;;;;;;;;;21.40;70.30;;;;;;4142547;28;19931;-50
2023/07/20 05:07:02;;;;;;;;;;;21.40;70.30;;;;;;4171988;28;20058;-48
2023/07/20 05:09:44;;;;;;;;;;;21.40;70.30;;;;;;4157725;28;20717;-52
2023/07/20 05:12:27;;;;;;;;;;;21.40;71.30;;;;;;4167243;28;19935;-49
2023/07/20 05:15:09;;;;;;;;;;;21.40;70.50;;;;;;4141391;28;19936;-50
2023/07/20 05:17:55;;;;;;;;;;;21.40;70.40;;;;;;4164818;28;20051;-49
2023/07/20 05:20:42;;;;;;;;;;;21.40;70.40;;;;;;4142583;28;19951;-51
2023/07/20 05:23:24;;;;;;;;;;;21.40;70.40;;;;;;4135328;28;19984;-49
2023/07/20 05:26:06;;;;;;;;;;;21.50;70.40;;;;;;4135379;28;19932;-49
2023/07/20 05:28:47;;;;;;;;;;;21.50;70.30;;;;;;4153272;28;19967;-49
2023/07/20 05:31:31;;;;;;;;;;;21.50;70.20;;;;;;4154969;28;19932;-48
2023/07/20 05:34:16;;;;;;;;;;;21.60;70.30;;;;;;4138396;28;19936;-52
2023/07/20 05:37:00;;;;;;;;;;;21.70;70.00;;;;;;4140965;28;19965;-50
2023/07/20 05:39:46;;;;;;;;;;;21.70;69.70;;;;;;4128302;28;20013;-49
2023/07/20 05:42:31;;;;;;;;;;;21.80;69.50;;;;;;4156558;28;19939;-49
2023/07/20 05:45:18;;;;;;;;;;;21.90;69.30;;;;;;4152838;28;20437;-52
2023/07/20 05:48:00;;;;;;;;;;;22.00;69.10;;;;;;4133800;28;19932;-49
2023/07/20 05:50:44;;;;;;;;;;;22.10;68.70;;;;;;4171209;28;19935;-49
2023/07/20 05:53:27;;;;;;;;;;;22.30;68.30;;;;;;4144052;28;19939;-46
2023/07/20 05:56:13;;;;;;;;;;;22.30;67.80;;;;;;4171112;28;20284;-49
2023/07/20 05:58:54;;;;;;;;;;;22.40;67.60;;;;;;4165038;28;19936;-49
2023/07/20 06:01:36;;;;;;;;;;;22.40;68.30;;;;;;4132787;28;19939;-46
2023/07/20 06:04:18;;;;;;;;;;;22.40;67.70;;;;;;4160980;28;19935;-49
2023/07/20 06:06:59;;;;;;;;;;;22.50;67.90;;;;;;4153199;28;20161;-48
2023/07/20 06:09:45;;;;;;;;;;;22.50;67.70;;;;;;4167147;28;20406;-53
2023/07/20 06:12:26;;;;;;;;;;;22.50;67.30;;;;;;4156554;28;20406;-47
2023/07/20 06:15:25;;;;;;;;;;;22.60;67.10;;;;;;4152282;28;19947;-48
2023/07/20 06:18:23;;;;;;;;;;;22.60;67.00;;;;;;4125176;28;19996;-49
2023/07/20 06:21:08;;;;;;;;;;;22.60;67.00;;;;;;4137751;28;20295;-49
2023/07/20 06:23:50;;;;;;;;;;;22.70;66.60;;;;;;4156912;28;19936;-47
2023/07/20 06:26:38;;;;;;;;;;;22.60;65.90;;;;;;4169473;28;19961;-48
2023/07/20 06:29:21;;;;;;;;;;;22.70;66.50;;;;;;4158359;28;19931;-49
2023/07/20 06:32:03;;;;;;;;;;;22.70;65.30;;;;;;4159118;28;19982;-49
2023/07/20 06:34:47;;;;;;;;;;;22.70;65.30;;;;;;4146827;28;19952;-49
2023/07/20 06:37:29;;;;;;;;;;;22.70;65.20;;;;;;4145085;28;19932;-50
2023/07/20 06:40:12;;;;;;;;;;;22.80;65.30;;;;;;4131311;28;19936;-49
2023/07/20 06:42:57;;;;;;;;;;;22.80;64.60;;;;;;4160024;28;19951;-49
2023/07/20 06:45:43;;;;;;;;;;;22.80;65.10;;;;;;4150214;28;20394;-49
2023/07/20 06:48:30;;;;;;;;;;;22.80;64.20;;;;;;4152239;28;20422;-49
2023/07/20 06:51:13;;;;;;;;;;;22.90;64.90;;;;;;4151155;28;19932;-49
2023/07/20 06:53:57;;;;;;;;;;;22.90;63.70;;;;;;4158891;28;20382;-48
2023/07/20 06:56:51;;;;;;;;;;;22.90;63.60;;;;;;4149531;28;19981;-48
2023/07/20 06:59:44;;;;;;;;;;;22.90;63.40;;;;;;4158084;28;20054;-48
2023/07/20 07:02:26;;;;;;;;;;;23.00;63.30;;;;;;4143119;28;19935;-49
2023/07/20 07:05:08;;;;;;;;;;;23.00;63.20;;;;;;4138068;28;20315;-49
2023/07/20 07:07:53;;;;;;;;;;;23.00;62.70;;;;;;4136586;28;19954;-50
2023/07/20 07:10:36;;;;;;;;;;;23.10;62.60;;;;;;4157309;28;20999;-51
2023/07/20 07:13:17;;;;;;;;;;;23.10;62.10;;;;;;4164810;28;19932;-50
2023/07/20 07:16:00;;;;;;;;;;;23.10;62.00;;;;;;4158599;28;19951;-50
2023/07/20 07:18:41;;;;;;;;;;;23.10;61.80;;;;;;4170200;28;20284;-49
2023/07/20 07:21:23;;;;;;;;;;;23.10;61.70;;;;;;4153682;28;20398;-49
2023/07/20 07:24:05;;;;;;;;;;;23.10;61.50;;;;;;4161101;28;19948;-49
2023/07/20 07:26:47;;;;;;;;;;;23.10;61.30;;;;;;4153427;28;20489;-53
2023/07/20 07:29:31;;;;;;;;;;;23.10;60.90;;;;;;4115711;28;19936;-51
2023/07/20 07:32:16;;;;;;;;;;;23.10;61.00;;;;;;4139958;28;19978;-50
2023/07/20 07:35:02;;;;;;;;;;;23.20;61.20;;;;;;4132895;28;19936;-51
2023/07/20 07:37:46;;;;;;;;;;;23.20;61.70;;;;;;4134902;28;20359;-51
2023/07/20 07:40:44;;;;;;;;;;;23.10;60.80;;;;;;4148102;28;19958;-51
2023/07/20 07:43:31;;;;;;;;;;;23.10;60.80;;;;;;4137900;28;19951;-50
2023/07/20 07:46:16;;;;;;;;;;;23.10;61.00;;;;;;4140078;28;19936;-54
2023/07/20 07:48:59;;;;;;;;;;;23.00;60.90;;;;;;4159371;28;20304;-54
2023/07/20 07:51:43;;;;;;;;;;;23.00;61.20;;;;;;4158046;28;19952;-53
2023/07/20 07:54:25;;;;;;;;;;;23.00;61.50;;;;;;4128999;28;19991;-53
2023/07/20 07:57:30;;;;;;;;;;;22.90;61.70;;;;;;4073305;28;19936;-50
2023/07/20 08:00:25;;;;;;;;;;;22.90;60.70;;;;;;4097148;28;19993;-50
2023/07/20 08:03:13;;;;;;;;;;;22.90;61.00;;;;;;4117699;28;19966;-51
2023/07/20 08:05:58;;;;;;;;;;;22.90;60.10;;;;;;4097295;28;19972;-51
2023/07/20 08:08:44;;;;;;;;;;;22.90;60.20;;;;;;4109579;28;20399;-53
2023/07/20 08:11:33;;;;;;;;;;;22.90;59.70;;;;;;4116905;28;20478;-51
2023/07/20 08:14:16;;;;;;;;;;;22.90;61.20;;;;;;4141029;28;19932;-50
2023/07/20 08:17:03;;;;;;;;;;;22.80;60.10;;;;;;4132998;28;19936;-50
2023/07/20 08:19:55;;;;;;;;;;;22.80;60.30;;;;;;4154230;28;19971;-52
2023/07/20 08:22:44;;;;;;;;;;;22.80;59.50;;;;;;4158473;28;20421;-52
2023/07/20 08:25:28;;;;;;;;;;;22.80;59.70;;;;;;4115034;28;19935;-53
2023/07/20 08:28:14;;;;;;;;;;;22.80;59.20;;;;;;4112961;28;20051;-51
2023/07/20 08:31:10;;;;;;;;;;;22.80;59.80;;;;;;4133797;28;19991;-52
2023/07/20 08:33:57;;;;;;;;;;;22.80;60.20;;;;;;4130599;28;20083;-54
2023/07/20 08:36:46;;;;;;;;;;;22.80;59.70;;;;;;4110518;28;19984;-51
2023/07/20 08:39:34;;;;;;;;;;;22.80;59.20;;;;;;4109402;28;20150;-50
2023/07/20 08:42:19;;;;;;;;;;;22.70;59.40;;;;;;4155061;28;19935;-51
2023/07/20 08:45:07;;;;;;;;;;;22.70;59.30;;;;;;4159384;28;19931;-55
2023/07/20 08:47:51;;;;;;;;;;;22.70;59.00;;;;;;4158793;28;20405;-51
2023/07/20 08:50:36;;;;;;;;;;;22.70;59.20;;;;;;4156310;28;20006;-52
2023/07/20 08:53:30;;;;;;;;;;;22.80;59.30;;;;;;4138685;28;19932;-50
2023/07/20 08:56:17;;;;;;;;;;;22.80;58.50;;;;;;4133189;28;19951;-52
2023/07/20 08:58:59;;;;;;;;;;;22.80;57.90;;;;;;4156466;28;19971;-51
2023/07/20 09:01:41;;;;;;;;;;;22.80;58.60;;;;;;4160477;28;19936;-52
2023/07/20 09:04:24;;;;;;;;;;;22.80;58.40;;;;;;4154798;28;20445;-53
2023/07/20 09:07:10;;;;;;;;;;;22.80;58.80;;;;;;4164496;28;19939;-52
2023/07/20 09:09:57;;;;;;;;;;;22.90;58.10;;;;;;4135965;28;20066;-51
2023/07/20 09:12:41;;;;;;;;;;;22.90;58.00;;;;;;4149573;28;19931;-54
2023/07/20 09:15:42;;;;;;;;;;;23.00;58.50;;;;;;4084647;28;19971;-48
2023/07/20 09:18:46;;;;;;;;;;;23.00;58.60;;;;;;4044609;28;20434;-49
2023/07/20 09:21:32;;;;;;;;;;;23.00;58.50;;;;;;4152225;28;20059;-54
2023/07/20 09:24:14;;;;;;;;;;;23.10;57.70;;;;;;4144252;28;19932;-52
2023/07/20 09:27:14;;;;;;;;;;;23.10;56.80;;;;;;4139570;28;19931;-55
2023/07/20 09:30:13;;;;;;;;;;;23.20;57.20;;;;;;4131533;28;20094;-54
2023/07/20 09:32:59;;;;;;;;;;;23.20;57.20;;;;;;4139902;28;19997;-51
2023/07/20 09:35:44;;;;;;;;;;;23.20;57.20;;;;;;4144173;28;19931;-55
2023/07/20 09:38:41;;;;;;;;;;;23.30;56.20;;;;;;4122519;28;19935;-52
2023/07/20 09:41:28;;;;;;;;;;;23.30;55.60;;;;;;4152588;28;19935;-51
2023/07/20 09:44:16;;;;;;;;;;;23.40;56.90;;;;;;4158035;28;19955;-51
2023/07/20 09:47:04;;;;;;;;;;;23.40;55.30;;;;;;4153004;28;19955;-51
2023/07/20 09:49:46;;;;;;;;;;;23.40;56.10;;;;;;4147263;28;19981;-49
2023/07/20 09:52:34;;;;;;;;;;;23.40;56.30;;;;;;4147054;28;20093;-49
2023/07/20 09:55:20;;;;;;;;;;;23.40;55.90;;;;;;4142242;28;19935;-49
2023/07/20 09:58:04;;;;;;;;;;;23.40;55.30;;;;;;4132063;28;20063;-51
2023/07/20 10:00:47;;;;;;;;;;;23.40;55.80;;;;;;4135260;28;19972;-53
2023/07/20 10:03:38;;;;;;;;;;;23.40;55.90;;;;;;4145104;28;19978;-53
2023/07/20 10:06:21;;;;;;;;;;;23.40;56.10;;;;;;4068557;28;20015;-52
2023/07/20 10:09:17;;;;;;;;;;;23.40;56.40;;;;;;4130801;28;19951;-53
2023/07/20 10:12:20;;;;;;;;;;;23.40;56.50;;;;;;4134397;28;19974;-53
2023/07/20 10:15:10;;;;;;;;;;;23.50;55.30;;;;;;4132273;28;20451;-52
2023/07/20 10:17:58;;;;;;;;;;;23.50;55.60;;;;;;4141489;28;19931;-52
2023/07/20 10:20:45;;;;;;;;;;;23.60;55.90;;;;;;4138015;28;20464;-50
2023/07/20 10:23:31;;;;;;;;;;;23.60;56.00;;;;;;4138316;28;19931;-51
2023/07/20 10:26:14;;;;;;;;;;;23.60;55.50;;;;;;4114890;28;20094;-52
2023/07/20 10:28:59;;;;;;;;;;;23.70;55.50;;;;;;4151572;28;19935;-50
2023/07/20 10:31:42;;;;;;;;;;;23.60;56.00;;;;;;4152614;28;20541;-49
2023/07/20 10:34:30;;;;;;;;;;;23.60;55.10;;;;;;4137314;28;19935;-51
2023/07/20 10:37:44;;;;;;;;;;;23.60;55.10;;;;;;4124828;28;20025;-53
2023/07/20 10:40:32;;;;;;;;;;;23.60;55.10;;;;;;4084408;28;20079;-53
2023/07/20 10:43:20;;;;;;;;;;;23.60;55.40;;;;;;4135482;28;19936;-51
2023/07/20 10:46:04;;;;;;;;;;;23.50;55.40;;;;;;4154671;28;19936;-53
2023/07/20 10:49:02;;;;;;;;;;;23.50;55.50;;;;;;4152984;28;19998;-50
2023/07/20 10:51:50;;;;;;;;;;;23.60;55.60;;;;;;4144081;28;19935;-52
2023/07/20 10:54:49;;;;;;;;;;;23.60;55.30;;;;;;4131084;28;19984;-51
2023/07/20 10:57:34;;;;;;;;;;;23.50;55.10;;;;;;4133534;28;19952;-53
2023/07/20 11:00:22;;;;;;;;;;;23.50;55.00;;;;;;4129669;28;19939;-50
2023/07/20 11:03:08;;;;;;;;;;;23.50;55.20;;;;;;4140753;28;19935;-54
2023/07/20 11:05:51;;;;;;;;;;;23.50;56.00;;;;;;4122315;28;19939;-49
2023/07/20 11:08:41;;;;;;;;;;;23.50;55.50;;;;;;4159041;28;19943;-50
2023/07/20 11:11:25;;;;;;;;;;;23.50;55.30;;;;;;4117788;28;20426;-53
2023/07/20 11:14:10;;;;;;;;;;;23.50;55.50;;;;;;4131657;28;20418;-50
2023/07/20 11:16:52;;;;;;;;;;;23.50;55.40;;;;;;4156416;28;19932;-53
2023/07/20 11:19:37;;;;;;;;;;;23.50;55.10;;;;;;4148103;28;19951;-53
2023/07/20 11:22:27;;;;;;;;;;;23.50;54.90;;;;;;4136176;28;19932;-53
2023/07/20 11:25:14;;;;;;;;;;;23.50;55.00;;;;;;4131447;28;19951;-50
2023/07/20 11:28:02;;;;;;;;;;;23.50;54.60;;;;;;4138067;28;19994;-54
2023/07/20 11:30:53;;;;;;;;;;;23.50;54.90;;;;;;4153472;28;19979;-54
2023/07/20 11:33:44;;;;;;;;;;;23.50;54.60;;;;;;4127866;28;19935;-53
2023/07/20 11:36:37;;;;;;;;;;;23.60;54.30;;;;;;4135771;28;19932;-54
2023/07/20 11:39:25;;;;;;;;;;;23.60;54.30;;;;;;4119680;28;20471;-54
2023/07/20 11:42:13;;;;;;;;;;;23.60;54.20;;;;;;4113359;28;19967;-47
2023/07/20 11:45:21;;;;;;;;;;;23.60;54.20;;;;;;4135016;28;20002;-47
2023/07/20 11:48:16;;;;;;;;;;;23.70;54.30;;;;;;4091480;28;20116;-51
2023/07/20 11:51:02;;;;;;;;;;;23.70;53.90;;;;;;4125198;28;20024;-49
2023/07/20 11:53:47;;;;;;;;;;;23.70;54.60;;;;;;4133727;28;19936;-54
2023/07/20 11:56:33;;;;;;;;;;;23.70;54.00;;;;;;4118808;28;19987;-50
2023/07/20 11:59:25;;;;;;;;;;;23.80;53.90;;;;;;4069194;28;19936;-47
2023/07/20 12:02:13;;;;;;;;;;;23.80;54.30;;;;;;4113950;28;19947;-49
2023/07/20 12:05:04;;;;;;;;;;;23.80;54.30;;;;;;4126862;28;20359;-47
2023/07/20 12:07:52;;;;;;;;;;;23.80;53.80;;;;;;4059575;28;19936;-50
2023/07/20 12:10:54;;;;;;;;;;;23.80;53.90;;;;;;4113823;28;19932;-47
2023/07/20 12:14:07;;;;;;;;;;;23.90;53.50;;;;;;4115384;28;19987;-49
2023/07/20 12:17:01;;;;;;;;;;;23.90;53.30;;;;;;3999857;28;19968;-48
2023/07/20 12:19:51;;;;;;;;;;;23.90;53.20;;;;;;3985864;28;19942;-47
2023/07/20 12:22:48;;;;;;;;;;;23.90;53.70;;;;;;4034929;28;19971;-55
2023/07/20 12:25:37;;;;;;;;;;;23.90;53.90;;;;;;4130159;28;19935;-55
2023/07/20 12:28:22;;;;;;;;;;;23.90;53.80;;;;;;4125418;28;20762;-53
2023/07/20 12:31:13;;;;;;;;;;;23.90;53.60;;;;;;4146513;28;19998;-50
2023/07/20 12:33:58;;;;;;;;;;;24.00;52.90;;;;;;3977903;28;20336;-59
2023/07/20 12:36:48;;;;;;;;;;;24.00;53.10;;;;;;4120903;28;20086;-56
2023/07/20 12:39:34;;;;;;;;;;;23.90;53.20;;;;;;4101790;28;20379;-54
2023/07/20 12:42:23;;;;;;;;;;;24.00;53.60;;;;;;4079595;28;19932;-52
2023/07/20 12:45:10;;;;;;;;;;;24.00;53.30;;;;;;4088068;28;20365;-57
2023/07/20 12:48:13;;;;;;;;;;;24.00;53.70;;;;;;4104182;28;19945;-55
2023/07/20 12:51:43;;;;;;;;;;;23.90;53.80;;;;;;4077340;28;19979;-58
2023/07/20 12:54:39;;;;;;;;;;;23.90;53.90;;;;;;4120496;28;20172;-56
2023/07/20 12:57:40;;;;;;;;;;;23.90;53.50;;;;;;4126486;28;20415;-55
2023/07/20 13:00:34;;;;;;;;;;;23.80;53.60;;;;;;4113181;28;19940;-56
2023/07/20 13:03:42;;;;;;;;;;;23.80;54.00;;;;;;4107039;28;19932;-58
2023/07/20 13:06:37;;;;;;;;;;;23.80;54.00;;;;;;4067113;28;19936;-57
2023/07/20 13:09:41;;;;;;;;;;;23.80;54.20;;;;;;4079309;28;19971;-57
2023/07/20 13:12:37;;;;;;;;;;;23.70;54.30;;;;;;4087712;28;19998;-57
2023/07/20 13:15:29;;;;;;;;;;;23.70;54.20;;;;;;4102260;28;19936;-54
2023/07/20 13:18:18;;;;;;;;;;;23.70;54.40;;;;;;4115749;28;19931;-56
2023/07/20 13:21:11;;;;;;;;;;;23.60;54.20;;;;;;4114154;28;20051;-56
2023/07/20 13:24:04;;;;;;;;;;;23.60;54.20;;;;;;4120293;28;20437;-51
2023/07/20 13:27:17;;;;;;;;;;;23.60;54.40;;;;;;4124975;28;19932;-56
2023/07/20 13:30:41;;;;;;;;;;;23.60;54.60;;;;;;4065709;28;20038;-58
2023/07/20 13:33:49;;;;;;;;;;;23.50;54.80;;;;;;4062888;28;19974;-57
2023/07/20 13:37:01;;;;;;;;;;;23.50;55.10;;;;;;4116309;28;20394;-56
2023/07/20 13:39:52;;;;;;;;;;;23.50;55.50;;;;;;4094973;28;20356;-57
2023/07/20 13:43:14;;;;;;;;;;;23.40;55.70;;;;;;4098778;28;20070;-57
2023/07/20 13:46:26;;;;;;;;;;;23.40;55.90;;;;;;4073664;28;19945;-56
2023/07/20 13:49:18;;;;;;;;;;;23.50;56.10;;;;;;4023419;28;20077;-55
2023/07/20 13:52:13;;;;;;;;;;;23.50;56.40;;;;;;4044090;28;20052;-56
2023/07/20 13:55:14;;;;;;;;;;;23.50;56.40;;;;;;4015591;28;19937;-52
2023/07/20 13:57:59;;;;;;;;;;;23.50;56.50;;;;;;4077110;28;19988;-52
2023/07/20 14:00:49;;;;;;;;;;;23.60;56.70;;;;;;4051123;28;20309;-56
2023/07/20 14:03:42;;;;;;;;;;;23.60;56.70;;;;;;4077270;28;20395;-57
2023/07/20 14:06:31;;;;;;;;;;;23.60;56.70;;;;;;4059656;28;20064;-52
2023/07/20 14:09:19;;;;;;;;;;;23.60;56.70;;;;;;4078552;28;19933;-57
2023/07/20 14:12:20;;;;;;;;;;;23.60;56.50;;;;;;4057204;28;19941;-56
2023/07/20 14:15:13;;;;;;;;;;;23.70;56.60;;;;;;4057917;28;19979;-57
2023/07/20 14:17:59;;;;;;;;;;;23.70;56.50;;;;;;4093930;28;19960;-57
2023/07/20 14:20:49;;;;;;;;;;;23.70;56.20;;;;;;4074015;28;20913;-55
2023/07/20 14:23:40;;;;;;;;;;;23.70;56.20;;;;;;4081449;28;20419;-56
2023/07/20 14:26:28;;;;;;;;;;;23.70;56.20;;;;;;4087939;28;19936;-56
2023/07/20 14:29:26;;;;;;;;;;;23.70;56.20;;;;;;4108800;28;19935;-54
2023/07/20 14:32:14;;;;;;;;;;;23.80;55.70;;;;;;4124379;28;20031;-56
2023/07/20 14:34:56;;;;;;;;;;;23.80;55.30;;;;;;4105667;28;20043;-57
2023/07/20 14:37:42;;;;;;;;;;;23.80;55.50;;;;;;4126592;28;19947;-56
2023/07/20 14:40:26;;;;;;;;;;;23.80;56.00;;;;;;4136785;28;19931;-56
2023/07/20 14:43:11;;;;;;;;;;;23.80;55.00;;;;;;4145853;28;19990;-56
2023/07/20 14:45:57;;;;;;;;;;;23.80;55.30;;;;;;4102498;28;19932;-48
2023/07/20 14:48:40;;;;;;;;;;;23.80;55.40;;;;;;4144691;28;19932;-48
2023/07/20 14:51:25;;;;;;;;;;;23.80;55.50;;;;;;4136098;28;20453;-49
2023/07/20 14:54:20;;;;;;;;;;;23.80;55.40;;;;;;4137559;28;20399;-47
2023/07/20 14:57:07;;;;;;;;;;;23.80;55.60;;;;;;4123717;28;19933;-48
2023/07/20 14:59:53;;;;;;;;;;;23.80;54.80;;;;;;4134310;28;20058;-47
2023/07/20 15:02:36;;;;;;;;;;;23.80;55.60;;;;;;4069501;28;19949;-50
2023/07/20 15:05:23;;;;;;;;;;;23.80;55.00;;;;;;4111236;28;19991;-50
2023/07/20 15:08:09;;;;;;;;;;;23.80;55.00;;;;;;4114021;28;20303;-49
2023/07/20 15:10:52;;;;;;;;;;;23.80;55.10;;;;;;4112249;28;19937;-48
2023/07/20 15:13:36;;;;;;;;;;;23.80;55.10;;;;;;4141551;28;19932;-49
2023/07/20 15:16:21;;;;;;;;;;;23.80;55.10;;;;;;4131380;28;20361;-51
2023/07/20 15:19:07;;;;;;;;;;;23.80;55.10;;;;;;4103947;28;19935;-48
2023/07/20 15:21:50;;;;;;;;;;;23.80;55.30;;;;;;4133832;28;20089;-48
2023/07/20 15:24:33;;;;;;;;;;;23.70;55.00;;;;;;4148852;28;19936;-48
2023/07/20 15:27:18;;;;;;;;;;;23.70;54.70;;;;;;4143044;28;20405;-49
2023/07/20 15:30:01;;;;;;;;;;;23.70;54.80;;;;;;4146041;28;19932;-49
2023/07/20 15:32:50;;;;;;;;;;;23.70;55.60;;;;;;4117034;28;19932;-49
2023/07/20 15:35:47;;;;;;;;;;;23.70;55.30;;;;;;4076090;28;19967;-50
2023/07/20 15:38:30;;;;;;;;;;;23.70;55.30;;;;;;4153780;28;19981;-47
2023/07/20 15:41:14;;;;;;;;;;;23.70;54.80;;;;;;4098737;28;20332;-49
2023/07/20 15:44:02;;;;;;;;;;;23.70;55.90;;;;;;4110669;28;20062;-50
2023/07/20 15:46:48;;;;;;;;;;;23.60;55.20;;;;;;4158801;28;19946;-49
2023/07/20 15:49:31;;;;;;;;;;;23.70;55.30;;;;;;4149579;28;19936;-48
2023/07/20 15:52:20;;;;;;;;;;;23.70;55.80;;;;;;4133658;28;20449;-49
2023/07/20 15:55:11;;;;;;;;;;;23.70;55.30;;;;;;4129365;28;19982;-49
2023/07/20 15:57:56;;;;;;;;;;;23.70;55.30;;;;;;4137470;28;20283;-48
2023/07/20 16:00:43;;;;;;;;;;;23.70;55.20;;;;;;4139040;28;20410;-48
2023/07/20 16:03:28;;;;;;;;;;;23.70;55.30;;;;;;4119570;28;19987;-48
2023/07/20 16:06:14;;;;;;;;;;;23.70;55.10;;;;;;4127561;28;19936;-49
2023/07/20 16:09:00;;;;;;;;;;;23.70;55.00;;;;;;4113091;28;20399;-48
2023/07/20 16:11:48;;;;;;;;;;;23.70;55.00;;;;;;4086590;28;19940;-48